Terminal Aerodrome Forecast
Issued by NWS

Home | Current Version | Previous Version | Text Only | Print | Product List | Glossary On
Versions: 1 2 3 4 5 6 7 8 9 10 11 12 13 14 15 16
000
FTUS43 KSGF 200500
TAFJLN
TAF
KJLN 200520Z 2006/2106 15005KT 6SM BR FEW250
      TEMPO 2007/2010 4SM BR
     FM201000 18005KT 4SM BR SCT250
      TEMPO 2010/2013 6SM BR
     FM201400 21010KT P6SM SCT250
     FM210100 21006KT P6SM FEW050 SCT100 BKN250=

USA.gov is the U.S. government's official web portal to all federal, state and local government web resources and services.